Time;durP1;ratioP1;P1;durP2;ratioP2;P2;SDS_P1;SDS_P2;PMS_P1;PMS_P2;Temp;Humidity;BMP_temperature;BMP_pressure;BME280_temperature;BME280_humidity;BME280_pressure;Samples;Min_cycle;Max_cycle;Signal;HPM_P1;HPM_P2
2022/03/27 00:00:46;;;;;;;8.98;6.88;;;8.00;99.90;;;;;;5010253;28;20046;-34
2022/03/27 00:03:12;;;;;;;10.20;7.55;;;8.00;99.90;;;;;;5011250;28;20405;-34
2022/03/27 00:05:39;;;;;;;12.38;7.90;;;8.00;99.90;;;;;;5012532;28;20057;-34
2022/03/27 00:08:06;;;;;;;12.57;8.43;;;7.90;99.90;;;;;;5011148;28;20054;-34
2022/03/27 00:11:23;;;;;;;10.68;7.53;;;8.00;99.90;;;;;;5008844;28;20042;-34
2022/03/27 00:13:21;;;;;;;11.15;8.05;;;7.90;99.90;;;;;;5008901;28;20062;-34
2022/03/27 00:15:49;;;;;;;12.32;8.65;;;7.90;99.90;;;;;;5010837;28;20046;-34
2022/03/27 00:18:15;;;;;;;14.65;9.02;;;7.90;99.90;;;;;;5011447;28;20064;-34
2022/03/27 00:20:42;;;;;;;11.90;8.63;;;7.70;99.90;;;;;;5012421;28;20049;-34
2022/03/27 00:23:09;;;;;;;13.63;9.52;;;7.70;99.90;;;;;;5012672;28;20049;-35
2022/03/27 00:25:36;;;;;;;18.67;10.15;;;7.70;99.90;;;;;;5011575;28;20088;-34
2022/03/27 00:28:03;;;;;;;14.55;9.30;;;7.60;99.90;;;;;;5011344;28;20056;-34
2022/03/27 00:30:30;;;;;;;15.95;9.82;;;7.60;99.90;;;;;;5013764;28;20054;-34
2022/03/27 00:32:58;;;;;;;13.57;9.05;;;7.60;99.90;;;;;;5016706;28;20049;-35
2022/03/27 00:35:25;;;;;;;16.83;9.65;;;7.50;99.90;;;;;;5014209;28;20512;-34
2022/03/27 00:37:52;;;;;;;14.30;9.77;;;7.50;99.90;;;;;;5015288;28;20056;-35
2022/03/27 00:40:19;;;;;;;12.73;8.40;;;7.50;99.90;;;;;;5015327;28;20104;-35
2022/03/27 00:42:46;;;;;;;16.75;9.77;;;7.50;99.90;;;;;;5015724;28;20052;-35
2022/03/27 00:45:12;;;;;;;16.45;10.43;;;7.40;99.90;;;;;;5014135;28;20470;-35
2022/03/27 00:47:39;;;;;;;17.50;10.00;;;7.40;99.90;;;;;;5015422;28;20050;-34
2022/03/27 00:50:08;;;;;;;15.45;10.90;;;7.40;99.90;;;;;;5014652;28;20060;-35
2022/03/27 00:52:35;;;;;;;16.77;10.63;;;7.40;99.90;;;;;;5015842;28;20046;-35
2022/03/27 00:55:02;;;;;;;18.15;12.30;;;7.40;99.90;;;;;;5009829;28;20050;-35
2022/03/27 00:57:30;;;;;;;20.65;12.80;;;7.40;99.90;;;;;;5015166;28;20053;-35
2022/03/27 00:59:56;;;;;;;17.88;12.35;;;7.40;99.90;;;;;;5013992;28;20048;-35
2022/03/27 01:02:23;;;;;;;17.70;11.77;;;7.40;99.90;;;;;;5015185;28;20045;-35
2022/03/27 01:04:50;;;;;;;27.27;15.32;;;7.40;99.90;;;;;;5013433;28;20493;-35
2022/03/27 01:07:19;;;;;;;24.55;15.20;;;7.40;99.90;;;;;;5015397;28;20051;-35
2022/03/27 01:09:44;;;;;;;24.48;15.23;;;7.30;99.90;;;;;;5007280;28;20371;-35
2022/03/27 01:12:16;;;;;;;24.45;16.63;;;7.30;99.90;;;;;;5014955;28;20084;-35
2022/03/27 01:14:44;;;;;;;25.73;16.02;;;7.30;99.90;;;;;;5014899;28;20046;-34
2022/03/27 01:17:11;;;;;;;29.10;18.55;;;7.30;99.90;;;;;;5014474;28;20053;-36
2022/03/27 01:19:40;;;;;;;29.13;17.33;;;7.30;99.90;;;;;;5014248;28;20508;-35
2022/03/27 01:22:08;;;;;;;27.85;17.63;;;7.30;99.90;;;;;;5013587;28;20505;-34
2022/03/27 01:24:34;;;;;;;26.10;16.77;;;7.20;99.90;;;;;;5014609;28;20049;-35
2022/03/27 01:27:01;;;;;;;24.30;16.27;;;7.30;99.90;;;;;;5014404;28;20056;-35
2022/03/27 01:29:28;;;;;;;23.20;15.52;;;7.30;99.90;;;;;;5015238;28;20056;-35
2022/03/27 01:31:55;;;;;;;24.23;16.58;;;7.20;99.90;;;;;;5014531;28;20048;-35
2022/03/27 01:34:21;;;;;;;27.52;17.75;;;7.20;99.90;;;;;;5011504;28;20060;-35
2022/03/27 01:36:48;;;;;;;26.27;19.67;;;7.20;99.90;;;;;;5015386;28;20444;-35
2022/03/27 01:39:17;;;;;;;27.92;18.40;;;7.10;99.90;;;;;;5012852;28;20073;-35
2022/03/27 01:41:44;;;;;;;27.00;18.02;;;7.10;99.90;;;;;;5004364;28;20038;-35
2022/03/27 01:44:11;;;;;;;28.00;19.02;;;7.10;99.90;;;;;;5015354;28;20046;-35
2022/03/27 01:46:39;;;;;;;25.77;17.98;;;7.10;99.90;;;;;;5014481;28;20401;-35
2022/03/27 01:49:07;;;;;;;22.25;15.77;;;7.00;99.90;;;;;;5012960;28;20052;-34
2022/03/27 01:51:34;;;;;;;23.35;14.25;;;7.00;99.90;;;;;;5013790;28;20054;-34
2022/03/27 01:54:01;;;;;;;22.30;15.02;;;7.00;99.90;;;;;;5013230;28;20049;-34
2022/03/27 01:56:29;;;;;;;23.33;14.35;;;7.00;99.90;;;;;;5013351;28;20053;-34
2022/03/27 01:58:55;;;;;;;21.23;14.02;;;7.00;99.90;;;;;;5012127;28;20054;-34
2022/03/27 02:01:22;;;;;;;21.90;14.55;;;7.00;99.90;;;;;;5013925;28;20038;-35
2022/03/27 02:03:49;;;;;;;16.48;12.15;;;7.00;99.90;;;;;;5015196;28;20058;-35
2022/03/27 02:06:16;;;;;;;15.35;11.85;;;7.00;99.90;;;;;;5013155;28;20052;-35
2022/03/27 02:08:42;;;;;;;15.63;10.85;;;7.00;99.90;;;;;;5014232;28;20053;-35
2022/03/27 02:11:09;;;;;;;16.27;12.45;;;7.00;99.90;;;;;;5014335;28;20057;-35
2022/03/27 02:13:37;;;;;;;17.38;11.48;;;6.90;99.90;;;;;;5014279;28;20048;-34
2022/03/27 02:16:04;;;;;;;14.27;10.38;;;7.10;99.90;;;;;;5013410;28;20054;-33
2022/03/27 02:18:31;;;;;;;13.13;9.68;;;7.10;99.90;;;;;;5013607;28;20068;-34
2022/03/27 02:21:00;;;;;;;17.52;10.40;;;7.10;99.90;;;;;;5014427;28;20050;-34
2022/03/27 02:23:27;;;;;;;15.50;10.75;;;7.10;99.90;;;;;;5013759;28;20108;-34
2022/03/27 02:25:54;;;;;;;18.08;11.10;;;7.10;99.90;;;;;;5014183;28;20076;-34
2022/03/27 02:28:20;;;;;;;17.02;10.10;;;7.10;99.90;;;;;;5013216;28;20053;-34
2022/03/27 02:30:48;;;;;;;17.17;9.77;;;7.10;99.90;;;;;;5007801;28;20049;-33
2022/03/27 02:33:16;;;;;;;19.70;10.48;;;7.10;99.90;;;;;;5012553;28;20478;-34
2022/03/27 02:35:42;;;;;;;15.18;9.30;;;7.00;99.90;;;;;;5025763;28;20048;-34
2022/03/27 02:38:10;;;;;;;16.48;9.93;;;7.00;99.90;;;;;;5012338;28;20401;-34
2022/03/27 02:40:36;;;;;;;21.92;13.05;;;6.90;99.90;;;;;;5028640;28;20529;-34
2022/03/27 02:43:03;;;;;;;19.85;11.82;;;6.90;99.90;;;;;;5012573;28;20180;-34
2022/03/27 02:45:30;;;;;;;22.10;12.25;;;6.90;99.90;;;;;;5012897;28;20080;-34
2022/03/27 02:47:58;;;;;;;20.25;11.35;;;6.90;99.90;;;;;;5013689;28;20107;-35
2022/03/27 02:50:27;;;;;;;30.33;12.32;;;6.80;99.90;;;;;;5013888;28;20390;-34
2022/03/27 02:52:54;;;;;;;21.25;11.90;;;6.80;99.90;;;;;;5026382;28;20054;-34
2022/03/27 02:55:21;;;;;;;23.52;11.77;;;6.80;99.90;;;;;;5012271;28;20056;-34
2022/03/27 02:57:48;;;;;;;25.52;13.20;;;6.80;99.90;;;;;;5011970;28;20046;-34
2022/03/27 03:00:15;;;;;;;19.08;11.27;;;6.80;99.90;;;;;;5010696;28;20068;-34
2022/03/27 03:02:42;;;;;;;23.13;11.55;;;6.70;99.90;;;;;;5013463;28;20092;-34
2022/03/27 03:05:12;;;;;;;20.55;12.55;;;6.70;99.90;;;;;;5011897;28;20085;-34
2022/03/27 03:07:41;;;;;;;18.20;10.95;;;6.70;99.90;;;;;;5011391;28;20045;-35
2022/03/27 03:10:08;;;;;;;25.83;12.90;;;6.70;99.90;;;;;;5012477;28;20052;-34
2022/03/27 03:12:35;;;;;;;22.13;11.90;;;6.70;99.90;;;;;;5013204;28;20056;-34
2022/03/27 03:15:03;;;;;;;26.85;12.73;;;6.60;99.90;;;;;;5012286;28;20152;-34
2022/03/27 03:17:29;;;;;;;23.30;13.18;;;6.60;99.90;;;;;;5013569;28;20481;-34
2022/03/27 03:19:56;;;;;;;26.05;13.60;;;6.60;99.90;;;;;;5011200;28;20052;-35
2022/03/27 03:22:25;;;;;;;21.35;12.48;;;6.60;99.90;;;;;;5011955;28;20125;-35
2022/03/27 03:24:52;;;;;;;25.08;12.35;;;6.60;99.90;;;;;;5012736;28;20088;-35
2022/03/27 03:27:18;;;;;;;26.08;13.15;;;6.60;99.90;;;;;;5011779;28;20120;-35
2022/03/27 03:29:45;;;;;;;25.63;12.52;;;6.60;99.90;;;;;;5010539;28;20508;-35
2022/03/27 03:32:12;;;;;;;24.63;12.85;;;6.60;99.90;;;;;;5011128;28;20064;-35
2022/03/27 03:34:39;;;;;;;24.45;12.98;;;6.60;99.90;;;;;;5012448;28;20049;-35
2022/03/27 03:37:06;;;;;;;28.70;13.60;;;6.60;99.90;;;;;;5010364;28;20038;-34
2022/03/27 03:39:34;;;;;;;31.02;14.15;;;6.60;99.90;;;;;;5012154;28;20096;-34
2022/03/27 03:42:00;;;;;;;23.40;12.32;;;6.60;99.90;;;;;;5012161;28;20073;-35
2022/03/27 03:44:27;;;;;;;26.30;13.10;;;6.70;99.90;;;;;;5012013;28;20444;-34
2022/03/27 03:46:54;;;;;;;27.50;14.95;;;6.70;99.90;;;;;;5012196;28;20038;-34
2022/03/27 03:49:21;;;;;;;29.55;14.27;;;6.70;99.90;;;;;;5012232;28;20121;-35
2022/03/27 03:51:48;;;;;;;30.40;14.10;;;6.70;99.90;;;;;;5012561;28;20046;-35
2022/03/27 03:54:14;;;;;;;29.65;14.18;;;6.70;99.90;;;;;;5012610;28;20049;-35
2022/03/27 03:56:43;;;;;;;31.13;14.52;;;6.70;99.90;;;;;;5011366;28;20049;-36
2022/03/27 03:59:09;;;;;;;26.52;12.75;;;6.70;99.90;;;;;;5009470;28;20489;-36
2022/03/27 04:01:36;;;;;;;26.08;12.80;;;6.60;99.90;;;;;;5011563;28;20041;-34
2022/03/27 04:04:03;;;;;;;26.27;12.75;;;6.70;99.90;;;;;;5011560;28;20044;-34
2022/03/27 04:06:29;;;;;;;32.05;13.73;;;6.60;99.90;;;;;;5010343;28;20050;-34
2022/03/27 04:08:56;;;;;;;30.83;13.80;;;6.70;99.90;;;;;;5011262;28;20391;-35
2022/03/27 04:11:23;;;;;;;25.73;12.75;;;6.60;99.90;;;;;;5011779;28;20046;-34
2022/03/27 04:13:51;;;;;;;30.95;13.18;;;6.60;99.90;;;;;;5012112;28;20053;-34
2022/03/27 04:16:17;;;;;;;27.55;12.65;;;6.60;99.90;;;;;;5009707;28;20053;-34
2022/03/27 04:18:44;;;;;;;26.52;12.50;;;6.50;99.90;;;;;;5012518;28;20053;-34
2022/03/27 04:21:11;;;;;;;26.90;13.50;;;6.60;99.90;;;;;;5009877;28;20041;-34
2022/03/27 04:23:38;;;;;;;32.40;13.15;;;6.50;99.90;;;;;;5012683;28;20057;-34
2022/03/27 04:26:04;;;;;;;34.03;12.50;;;6.50;99.90;;;;;;5011538;28;20045;-34
2022/03/27 04:28:31;;;;;;;30.40;12.50;;;6.50;99.90;;;;;;5011903;28;20056;-34
2022/03/27 04:30:59;;;;;;;32.35;12.95;;;6.50;99.90;;;;;;5010044;28;20526;-34
2022/03/27 04:33:26;;;;;;;27.40;11.63;;;6.50;99.90;;;;;;5010026;28;20072;-35
2022/03/27 04:35:53;;;;;;;30.30;11.65;;;6.50;99.90;;;;;;5010526;28;20124;-34
2022/03/27 04:38:19;;;;;;;31.58;13.02;;;6.50;99.90;;;;;;4997726;28;20141;-34
2022/03/27 04:40:46;;;;;;;31.85;11.77;;;6.50;99.90;;;;;;5002412;28;20355;-35
2022/03/27 04:43:13;;;;;;;26.02;11.38;;;6.40;99.90;;;;;;5012438;28;20054;-34
2022/03/27 04:45:40;;;;;;;23.52;10.32;;;6.40;99.90;;;;;;5011873;28;20041;-34
2022/03/27 04:48:08;;;;;;;30.27;10.80;;;6.40;99.90;;;;;;5012461;28;20054;-35
2022/03/27 04:50:35;;;;;;;32.35;11.82;;;6.40;99.90;;;;;;5011419;28;20046;-34
2022/03/27 04:53:01;;;;;;;33.72;11.95;;;6.50;99.90;;;;;;5011343;28;20144;-34
2022/03/27 04:55:28;;;;;;;33.33;11.57;;;6.40;99.90;;;;;;5012064;28;20064;-34
2022/03/27 04:57:55;;;;;;;36.05;11.60;;;6.40;99.90;;;;;;5011055;28;20144;-34
2022/03/27 05:00:22;;;;;;;25.67;10.85;;;6.40;99.90;;;;;;5009373;28;20049;-34
2022/03/27 05:02:51;;;;;;;28.63;11.55;;;6.40;99.90;;;;;;5010301;28;20042;-34
2022/03/27 05:05:22;;;;;;;42.42;13.27;;;6.40;99.90;;;;;;5010757;28;20482;-34
2022/03/27 05:07:49;;;;;;;32.43;11.13;;;6.40;99.90;;;;;;5011384;28;20042;-34
2022/03/27 05:10:15;;;;;;;41.22;13.68;;;6.40;99.90;;;;;;5011182;28;20293;-34
2022/03/27 05:12:42;;;;;;;31.33;12.68;;;6.40;99.90;;;;;;5012054;28;20074;-34
2022/03/27 05:15:10;;;;;;;34.38;12.82;;;6.40;99.90;;;;;;5012149;28;20474;-34
2022/03/27 05:17:47;;;;;;;48.17;13.90;;;6.40;99.90;;;;;;5014339;28;20045;-34
2022/03/27 05:20:13;;;;;;;42.00;13.18;;;6.50;99.90;;;;;;5015366;28;20041;-34
2022/03/27 05:22:42;;;;;;;37.10;13.32;;;6.50;99.90;;;;;;5013206;28;20053;-34
2022/03/27 05:25:09;;;;;;;45.30;13.52;;;6.40;99.90;;;;;;5014434;28;20046;-34
2022/03/27 05:27:43;;;;;;;42.58;13.98;;;6.50;99.90;;;;;;5011969;28;20038;-34
2022/03/27 05:30:10;;;;;;;46.95;14.95;;;6.50;99.90;;;;;;5013253;28;20057;-34
2022/03/27 05:32:36;;;;;;;36.95;12.45;;;6.50;99.90;;;;;;5014159;28;20056;-34
2022/03/27 05:35:03;;;;;;;38.30;13.80;;;6.50;99.90;;;;;;5014152;28;20100;-34
2022/03/27 05:37:31;;;;;;;48.15;14.85;;;6.50;99.90;;;;;;5013873;28;20050;-34
2022/03/27 05:39:59;;;;;;;44.78;14.35;;;6.50;99.90;;;;;;5013450;28;20488;-34
2022/03/27 05:42:25;;;;;;;41.95;13.43;;;6.60;99.90;;;;;;5015025;28;20077;-35
2022/03/27 05:44:52;;;;;;;48.70;15.75;;;6.60;99.90;;;;;;5014738;28;20042;-34
2022/03/27 05:47:19;;;;;;;51.40;16.95;;;6.50;99.90;;;;;;5014022;28;20084;-34
2022/03/27 05:49:47;;;;;;;61.70;17.58;;;6.60;99.90;;;;;;5013779;28;20042;-34
2022/03/27 05:52:16;;;;;;;54.03;16.50;;;6.50;99.90;;;;;;5012881;28;20042;-34
2022/03/27 05:54:43;;;;;;;56.38;17.95;;;6.60;99.90;;;;;;5014380;28;20045;-34
2022/03/27 05:57:11;;;;;;;63.10;18.67;;;6.60;99.90;;;;;;5013712;28;20056;-34
2022/03/27 05:59:37;;;;;;;59.00;18.52;;;6.60;99.90;;;;;;5010069;28;20056;-34
2022/03/27 06:02:04;;;;;;;54.97;16.98;;;6.60;99.90;;;;;;5008816;28;20402;-34
2022/03/27 06:04:31;;;;;;;56.10;16.92;;;6.60;99.90;;;;;;5014633;28;20137;-34
2022/03/27 06:06:58;;;;;;;53.22;16.85;;;6.60;99.90;;;;;;5013533;28;20053;-34
2022/03/27 06:09:24;;;;;;;46.40;16.65;;;6.70;99.90;;;;;;5013285;28;20790;-34
2022/03/27 06:11:51;;;;;;;64.20;17.77;;;6.70;99.90;;;;;;5012023;28;20041;-35
2022/03/27 06:14:19;;;;;;;59.80;17.65;;;6.70;99.90;;;;;;5014454;28;20054;-34
2022/03/27 06:16:46;;;;;;;55.85;15.63;;;6.70;99.90;;;;;;5009842;28;20041;-34
2022/03/27 06:19:13;;;;;;;51.55;14.77;;;6.70;99.90;;;;;;5014129;28;20050;-34
2022/03/27 06:21:39;;;;;;;62.05;16.02;;;6.80;99.90;;;;;;5012085;28;20441;-34
2022/03/27 06:24:06;;;;;;;45.10;13.55;;;6.80;99.90;;;;;;5014374;28;20049;-34
2022/03/27 06:26:33;;;;;;;42.92;13.75;;;6.80;99.90;;;;;;5013057;28;20052;-35
2022/03/27 06:29:00;;;;;;;45.97;12.45;;;6.80;99.90;;;;;;5007944;28;20061;-35
2022/03/27 06:31:28;;;;;;;55.25;13.18;;;6.90;99.90;;;;;;5011516;28;20049;-35
2022/03/27 06:33:54;;;;;;;49.50;14.38;;;6.90;99.90;;;;;;5012140;28;20048;-35
2022/03/27 06:36:21;;;;;;;63.42;14.45;;;6.90;99.90;;;;;;5012077;28;20050;-35
2022/03/27 06:38:48;;;;;;;55.67;14.98;;;7.00;99.90;;;;;;5007504;28;20502;-35
2022/03/27 06:41:15;;;;;;;57.65;14.45;;;7.00;99.90;;;;;;5012638;28;20048;-35
2022/03/27 06:43:42;;;;;;;60.55;13.60;;;7.00;99.90;;;;;;5012685;28;20076;-34
2022/03/27 06:46:13;;;;;;;54.92;13.48;;;7.00;99.90;;;;;;5010920;28;20042;-34
2022/03/27 06:48:41;;;;;;;60.17;13.07;;;7.10;99.90;;;;;;5011835;28;20046;-35
2022/03/27 06:51:07;;;;;;;48.53;12.18;;;7.10;99.90;;;;;;5013670;28;20038;-35
2022/03/27 06:53:34;;;;;;;60.75;13.50;;;7.10;99.90;;;;;;5011493;28;20052;-35
2022/03/27 06:56:01;;;;;;;59.42;13.05;;;7.10;99.90;;;;;;5010236;28;20184;-35
2022/03/27 06:58:28;;;;;;;63.95;13.32;;;7.10;99.90;;;;;;5009185;28;20074;-35
2022/03/27 07:03:41;;;;;;;53.35;12.30;;;7.10;99.90;;;;;;5011378;28;20046;-35
2022/03/27 07:06:08;;;;;;;53.88;10.90;;;7.10;99.90;;;;;;5010283;28;20054;-35
2022/03/27 07:08:34;;;;;;;69.72;12.45;;;7.10;99.90;;;;;;5009557;28;20485;-34
2022/03/27 07:11:01;;;;;;;51.65;10.77;;;7.10;99.90;;;;;;5005965;28;20053;-35
2022/03/27 07:13:28;;;;;;;61.92;11.93;;;7.10;99.90;;;;;;5005561;28;20054;-35
2022/03/27 07:15:55;;;;;;;54.33;11.50;;;7.10;99.90;;;;;;5001095;28;20065;-35
2022/03/27 07:18:22;;;;;;;54.45;11.10;;;7.10;99.90;;;;;;5009659;28;20056;-35
2022/03/27 07:20:50;;;;;;;42.78;10.57;;;7.10;99.90;;;;;;5013123;28;20050;-35
2022/03/27 07:23:18;;;;;;;46.97;10.15;;;7.10;99.90;;;;;;5011495;28;20046;-35
2022/03/27 07:25:50;;;;;;;65.20;12.75;;;7.10;99.90;;;;;;5012097;28;20053;-35
2022/03/27 07:28:18;;;;;;;;;;;7.10;99.90;;;;;;5013689;28;20084;-35
2022/03/27 07:30:45;;;;;;;46.35;11.30;;;7.10;99.90;;;;;;5013586;28;19917;-36
2022/03/27 07:33:12;;;;;;;66.65;13.32;;;7.10;99.90;;;;;;5012819;28;20064;-34
2022/03/27 07:35:39;;;;;;;56.80;12.95;;;7.10;99.90;;;;;;5011587;28;20550;-35
2022/03/27 07:38:07;;;;;;;67.15;12.77;;;7.20;99.90;;;;;;5000171;28;20541;-35
2022/03/27 07:40:34;;;;;;;50.95;10.80;;;7.10;99.90;;;;;;5011785;28;20054;-35
2022/03/27 07:43:01;;;;;;;51.85;10.70;;;7.20;99.90;;;;;;5007749;28;20121;-34
2022/03/27 07:45:29;;;;;;;61.65;11.63;;;7.20;99.90;;;;;;5006615;28;20486;-34
2022/03/27 07:47:56;;;;;;;56.65;11.70;;;7.20;99.90;;;;;;5006853;28;20048;-34
2022/03/27 07:50:24;;;;;;;57.08;11.70;;;7.20;99.90;;;;;;4997417;28;20269;-34
2022/03/27 07:52:51;;;;;;;62.45;12.35;;;7.30;99.90;;;;;;5002465;28;20046;-35
2022/03/27 07:55:20;;;;;;;55.13;11.48;;;7.40;99.90;;;;;;5005586;28;20041;-35
2022/03/27 07:57:46;;;;;;;56.78;11.63;;;7.40;99.90;;;;;;5001907;28;20482;-34
2022/03/27 08:00:15;;;;;;;57.83;10.93;;;7.60;99.90;;;;;;5009245;28;20060;-34
2022/03/27 08:02:42;;;;;;;61.13;10.45;;;7.60;99.90;;;;;;5011648;28;20184;-35
2022/03/27 08:05:10;;;;;;;56.35;10.70;;;7.60;99.90;;;;;;5010102;28;20050;-34
2022/03/27 08:07:36;;;;;;;61.65;11.20;;;7.70;99.90;;;;;;5003964;28;20060;-34
2022/03/27 08:10:04;;;;;;;46.17;10.20;;;7.70;99.90;;;;;;4996242;28;20057;-34
2022/03/27 08:12:32;;;;;;;42.67;10.18;;;7.90;99.90;;;;;;5009691;28;20045;-35
2022/03/27 08:14:59;;;;;;;43.60;10.13;;;7.90;99.90;;;;;;5002811;28;20089;-36
2022/03/27 08:17:25;;;;;;;48.70;9.32;;;7.90;99.90;;;;;;5004835;28;20484;-33
2022/03/27 08:19:52;;;;;;;46.85;8.80;;;7.80;99.90;;;;;;5008559;28;20091;-35
2022/03/27 08:22:20;;;;;;;51.40;9.82;;;7.80;99.90;;;;;;5012565;28;20121;-35
2022/03/27 08:24:47;;;;;;;50.67;10.02;;;7.90;99.90;;;;;;4999468;28;20053;-35
2022/03/27 08:27:14;;;;;;;47.95;9.27;;;8.00;99.90;;;;;;5008964;28;20121;-34
2022/03/27 08:29:42;;;;;;;51.45;9.30;;;8.10;99.90;;;;;;5010864;28;20041;-34
2022/03/27 08:32:10;;;;;;;53.63;9.80;;;8.30;99.90;;;;;;4996579;28;20047;-34
2022/03/27 08:34:37;;;;;;;51.33;9.05;;;8.50;99.90;;;;;;5012041;28;20037;-35
2022/03/27 08:37:05;;;;;;;48.75;9.05;;;8.70;99.90;;;;;;5002361;28;20566;-35
2022/03/27 08:39:32;;;;;;;41.90;8.77;;;8.90;99.90;;;;;;4992957;28;20493;-35
2022/03/27 08:41:59;;;;;;;50.03;9.57;;;9.00;99.90;;;;;;4993001;28;20057;-35
2022/03/27 08:44:27;;;;;;;52.38;8.68;;;9.10;99.90;;;;;;4993732;28;20050;-34
2022/03/27 08:46:56;;;;;;;48.75;8.57;;;9.20;99.90;;;;;;5006153;28;20231;-35
2022/03/27 08:49:30;;;;;;;43.85;8.25;;;9.20;99.90;;;;;;4995740;28;20046;-35
2022/03/27 08:51:58;;;;;;;49.22;8.35;;;9.30;99.90;;;;;;4996955;28;20057;-35
2022/03/27 08:54:27;;;;;;;45.65;8.20;;;9.40;99.90;;;;;;5000618;28;20128;-35
2022/03/27 08:57:00;;;;;;;46.42;9.38;;;9.60;99.90;;;;;;5005117;28;20045;-34
2022/03/27 08:59:27;;;;;;;44.67;8.50;;;9.70;99.90;;;;;;5015084;28;20381;-34
2022/03/27 09:01:55;;;;;;;36.38;7.40;;;9.80;99.90;;;;;;5014649;28;20558;-34
2022/03/27 09:04:23;;;;;;;49.63;8.52;;;10.00;99.90;;;;;;5016004;28;20046;-34
2022/03/27 09:06:50;;;;;;;50.75;8.75;;;10.10;99.90;;;;;;4998031;28;20560;-35
2022/03/27 09:09:16;;;;;;;41.58;8.25;;;10.30;99.90;;;;;;5015845;28;20041;-35
2022/03/27 09:11:43;;;;;;;45.47;9.02;;;10.40;99.90;;;;;;5014303;28;20081;-35
2022/03/27 09:14:11;;;;;;;45.22;8.52;;;10.60;99.90;;;;;;5015820;28;20508;-35
2022/03/27 09:17:01;;;;;;;40.88;7.72;;;10.80;99.90;;;;;;5015599;28;20361;-35
2022/03/27 09:19:33;;;;;;;44.92;8.13;;;11.00;99.90;;;;;;5014460;28;20425;-35
2022/03/27 09:22:00;;;;;;;48.15;9.07;;;11.20;99.90;;;;;;5004516;28;20046;-35
2022/03/27 09:24:34;;;;;;;50.08;8.85;;;11.30;99.90;;;;;;5007244;28;20470;-35
2022/03/27 09:27:01;;;;;;;32.63;7.38;;;11.40;99.90;;;;;;5015839;28;20045;-34
2022/03/27 09:29:27;;;;;;;48.90;8.25;;;11.50;99.70;;;;;;5014656;28;20049;-34
2022/03/27 09:31:57;;;;;;;52.60;9.15;;;11.50;99.50;;;;;;5015445;28;20041;-34
2022/03/27 09:34:28;;;;;;;48.97;9.13;;;11.60;99.10;;;;;;5015766;28;20050;-34
2022/03/27 09:36:55;;;;;;;37.00;7.97;;;11.60;99.40;;;;;;5015536;28;20482;-35
2022/03/27 09:39:23;;;;;;;39.80;7.32;;;11.80;98.40;;;;;;5014326;28;20061;-36
2022/03/27 09:41:51;;;;;;;42.63;7.97;;;12.00;97.80;;;;;;5015477;28;20382;-35
2022/03/27 09:44:19;;;;;;;41.80;6.95;;;12.10;96.80;;;;;;5015164;28;20437;-35
2022/03/27 09:46:54;;;;;;;41.95;7.35;;;12.20;96.40;;;;;;5013409;28;20048;-35
2022/03/27 09:49:22;;;;;;;41.58;7.65;;;12.30;96.10;;;;;;5014496;28;20042;-34
2022/03/27 09:51:58;;;;;;;41.13;7.90;;;12.50;96.40;;;;;;5014698;28;20389;-34
2022/03/27 09:54:24;;;;;;;39.42;7.70;;;12.70;95.10;;;;;;5014745;28;20052;-34
2022/03/27 09:56:51;;;;;;;40.95;8.55;;;12.80;95.00;;;;;;5013612;28;20141;-35
2022/03/27 09:59:28;;;;;;;39.10;7.45;;;12.90;94.50;;;;;;5012677;28;20054;-34
2022/03/27 10:01:56;;;;;;;40.53;7.38;;;13.00;93.30;;;;;;5012098;28;20085;-34
2022/03/27 10:04:23;;;;;;;33.13;7.25;;;13.10;93.20;;;;;;5013020;28;20053;-34
2022/03/27 10:06:49;;;;;;;38.08;7.05;;;13.20;92.90;;;;;;5013896;28;20042;-35
2022/03/27 10:09:17;;;;;;;42.50;8.55;;;13.30;92.80;;;;;;5014182;28;20049;-34
2022/03/27 10:11:44;;;;;;;35.33;6.80;;;13.40;92.40;;;;;;5014588;28;20077;-34
2022/03/27 10:14:11;;;;;;;41.75;7.93;;;13.60;92.70;;;;;;5013594;28;20437;-34
2022/03/27 10:16:46;;;;;;;35.97;6.93;;;13.80;92.00;;;;;;5012611;28;20111;-35
2022/03/27 10:19:19;;;;;;;38.85;7.00;;;13.80;90.90;;;;;;5011974;28;20091;-35
2022/03/27 10:21:46;;;;;;;35.85;7.13;;;13.80;90.70;;;;;;5013280;28;20044;-35
2022/03/27 10:24:14;;;;;;;37.95;6.65;;;13.90;90.30;;;;;;5011727;28;20046;-34
2022/03/27 10:26:43;;;;;;;38.55;7.43;;;13.90;90.00;;;;;;5008576;28;20501;-35
2022/03/27 10:29:10;;;;;;;35.40;6.80;;;14.00;89.40;;;;;;5007261;28;20368;-35
2022/03/27 10:31:38;;;;;;;36.75;7.13;;;13.90;88.80;;;;;;5012891;28;20046;-35
2022/03/27 10:34:05;;;;;;;34.20;7.25;;;13.90;89.00;;;;;;5013199;28;20046;-35
2022/03/27 10:36:37;;;;;;;39.90;7.13;;;13.90;90.20;;;;;;5013675;28;20050;-35
2022/03/27 10:39:08;;;;;;;33.50;6.57;;;14.20;88.20;;;;;;5010502;28;20056;-35
2022/03/27 10:41:36;;;;;;;37.08;6.57;;;14.20;86.50;;;;;;5013292;28;20034;-35
2022/03/27 10:44:08;;;;;;;30.58;6.35;;;14.40;88.10;;;;;;5005701;28;20137;-35
2022/03/27 10:46:35;;;;;;;30.30;6.93;;;14.60;85.50;;;;;;5012440;28;20386;-35
2022/03/27 10:49:12;;;;;;;33.95;6.43;;;14.60;83.10;;;;;;5013405;28;20046;-35
2022/03/27 10:51:40;;;;;;;26.35;5.97;;;14.70;85.80;;;;;;5009087;28;20053;-35
2022/03/27 10:54:08;;;;;;;28.52;6.28;;;14.90;84.20;;;;;;4995803;28;20074;-35
2022/03/27 10:56:36;;;;;;;31.35;6.35;;;14.90;80.50;;;;;;5013273;28;20547;-35
2022/03/27 10:59:12;;;;;;;36.25;6.90;;;14.80;78.30;;;;;;5012730;28;20056;-35
2022/03/27 11:01:44;;;;;;;27.05;5.95;;;14.80;79.50;;;;;;5007851;28;20072;-35
2022/03/27 11:04:11;;;;;;;35.83;6.18;;;14.90;79.90;;;;;;5012542;28;20050;-35
2022/03/27 11:06:39;;;;;;;30.90;6.57;;;15.00;79.10;;;;;;5008698;28;20049;-35
2022/03/27 11:09:06;;;;;;;27.92;6.15;;;15.10;77.60;;;;;;5011174;28;20386;-36
2022/03/27 11:12:07;;;;;;;32.95;7.35;;;15.10;76.80;;;;;;5013371;28;20081;-36
2022/03/27 11:15:02;;;;;;;31.00;6.28;;;15.30;75.80;;;;;;5006852;28;20041;-35
2022/03/27 11:17:41;;;;;;;32.58;6.95;;;15.40;76.90;;;;;;5004738;28;20037;-35
2022/03/27 11:20:10;;;;;;;32.63;7.05;;;15.50;79.80;;;;;;5012181;28;20053;-35
2022/03/27 11:22:53;;;;;;;35.30;7.65;;;15.60;76.90;;;;;;5009808;28;20050;-35
2022/03/27 11:25:30;;;;;;;37.50;7.18;;;15.90;73.50;;;;;;5009033;28;20045;-36
2022/03/27 11:27:58;;;;;;;29.08;6.45;;;16.00;72.00;;;;;;5010990;28;20056;-36
2022/03/27 11:30:25;;;;;;;30.98;7.05;;;16.10;72.40;;;;;;5005789;28;20052;-35
2022/03/27 11:33:16;;;;;;;34.05;6.97;;;16.10;71.90;;;;;;5007429;28;20038;-35
2022/03/27 11:35:44;;;;;;;28.08;6.07;;;16.30;71.70;;;;;;5010796;28;20133;-35
2022/03/27 11:38:21;;;;;;;36.83;7.97;;;16.40;70.60;;;;;;5002403;28;20046;-36
2022/03/27 11:40:48;;;;;;;31.33;7.43;;;16.60;66.20;;;;;;5006921;28;20096;-36
2022/03/27 11:43:31;;;;;;;23.38;6.65;;;16.70;68.90;;;;;;5010450;28;20053;-35
2022/03/27 11:45:58;;;;;;;29.67;6.70;;;16.90;66.30;;;;;;5008069;28;20061;-35
2022/03/27 11:48:27;;;;;;;27.38;6.03;;;16.90;66.10;;;;;;5012581;28;20103;-36
2022/03/27 11:50:54;;;;;;;27.05;6.72;;;17.00;65.80;;;;;;5011733;28;20120;-36
2022/03/27 11:53:30;;;;;;;31.88;6.60;;;17.00;65.10;;;;;;5012305;28;20045;-36
2022/03/27 11:56:05;;;;;;;23.83;6.07;;;17.10;62.70;;;;;;5011881;28;20049;-35
2022/03/27 11:58:32;;;;;;;29.55;6.25;;;17.20;62.90;;;;;;5012547;28;20048;-35
2022/03/27 12:01:03;;;;;;;27.83;5.97;;;17.10;63.10;;;;;;5008369;28;20052;-36
2022/03/27 12:03:31;;;;;;;25.63;5.83;;;17.10;61.10;;;;;;5008985;28;20359;-35
2022/03/27 12:06:04;;;;;;;27.40;5.85;;;17.30;61.10;;;;;;5010030;28;20084;-35
2022/03/27 12:08:35;;;;;;;22.38;5.50;;;17.30;58.70;;;;;;5011490;28;20056;-36
2022/03/27 12:11:05;;;;;;;26.90;6.03;;;17.30;59.20;;;;;;5010617;28;20057;-36
2022/03/27 12:13:36;;;;;;;23.80;5.28;;;17.30;59.80;;;;;;5012539;28;20038;-35
2022/03/27 12:16:03;;;;;;;24.90;5.57;;;17.40;59.60;;;;;;5011583;28;20052;-35
2022/03/27 12:18:32;;;;;;;26.60;5.68;;;17.50;59.20;;;;;;5003446;28;20132;-36
2022/03/27 12:20:59;;;;;;;25.00;6.00;;;17.50;59.00;;;;;;5004305;28;20105;-35
2022/03/27 12:23:28;;;;;;;22.85;5.65;;;17.40;58.00;;;;;;5013119;28;20046;-35
2022/03/27 12:31:37;;;;;;;26.17;5.85;;;17.30;59.50;;;;;;5019172;28;20049;-36
2022/03/27 12:34:05;;;;;;;24.83;5.80;;;17.50;57.50;;;;;;5017587;28;20042;-36
2022/03/27 12:36:31;;;;;;;26.23;5.53;;;17.40;56.50;;;;;;5015487;28;20053;-36
2022/03/27 12:38:59;;;;;;;24.00;5.38;;;17.30;56.30;;;;;;5017164;28;20052;-42
2022/03/27 12:41:39;;;;;;;22.30;5.32;;;17.20;57.90;;;;;;5018821;28;20389;-36
2022/03/27 12:44:06;;;;;;;25.85;5.05;;;17.30;57.20;;;;;;5015262;28;20053;-35
2022/03/27 12:46:32;;;;;;;25.08;5.72;;;17.40;57.60;;;;;;5016711;28;20065;-36
2022/03/27 12:49:00;;;;;;;21.63;5.75;;;17.50;58.00;;;;;;5011201;28;20064;-36
2022/03/27 12:51:28;;;;;;;24.15;5.68;;;17.60;56.90;;;;;;5015459;28;20136;-36